Time;durP1;ratioP1;P1;durP2;ratioP2;P2;SDS_P1;SDS_P2;PMS_P1;PMS_P2;Temp;Humidity;BMP_temperature;BMP_pressure;BME280_temperature;BME280_humidity;BME280_pressure;Samples;Min_cycle;Max_cycle;Signal;HPM_P1;HPM_P2
2022/08/11 00:00:12;;;;;;;4.97;0.90;;;;;;;;;;5264428;28;20128;-71
2022/08/11 00:02:46;;;;;;;2.72;0.90;;;;;;;;;;5263679;28;20468;-71
2022/08/11 00:05:18;;;;;;;6.10;1.10;;;;;;;;;;5264601;28;20109;-71
2022/08/11 00:07:53;;;;;;;6.75;0.90;;;;;;;;;;5264582;28;20427;-71
2022/08/11 00:10:26;;;;;;;5.30;0.88;;;;;;;;;;5263571;28;20374;-71
2022/08/11 00:12:59;;;;;;;4.43;1.00;;;;;;;;;;5264399;28;20104;-71
2022/08/11 00:15:43;;;;;;;6.15;0.90;;;;;;;;;;5264265;28;20033;-71
2022/08/11 00:18:15;;;;;;;4.75;0.90;;;;;;;;;;5263303;28;20163;-71
2022/08/11 00:20:47;;;;;;;4.63;1.20;;;;;;;;;;5264299;28;20021;-72
2022/08/11 00:23:19;;;;;;;5.78;1.42;;;;;;;;;;5263479;28;20024;-71
2022/08/11 00:25:51;;;;;;;2.00;0.80;;;;;;;;;;5263852;28;20025;-71
2022/08/11 00:28:22;;;;;;;3.85;0.95;;;;;;;;;;5263942;28;20024;-71
2022/08/11 00:30:54;;;;;;;5.28;0.80;;;;;;;;;;5263113;28;20108;-71
2022/08/11 00:33:31;;;;;;;5.00;0.90;;;;;;;;;;5264048;28;20379;-71
2022/08/11 00:36:03;;;;;;;5.55;0.82;;;;;;;;;;5264003;28;20117;-71
2022/08/11 00:38:36;;;;;;;3.17;1.20;;;;;;;;;;5263250;28;20090;-72
2022/08/11 00:41:19;;;;;;;4.82;1.42;;;;;;;;;;5263620;28;20040;-71
2022/08/11 00:44:03;;;;;;;5.18;1.25;;;;;;;;;;5262614;28;20041;-71
2022/08/11 00:46:41;;;;;;;6.03;1.08;;;;;;;;;;5262973;28;20036;-71
2022/08/11 00:49:17;;;;;;;5.35;1.00;;;;;;;;;;5263853;28;20078;-72
2022/08/11 00:52:06;;;;;;;2.97;1.00;;;;;;;;;;5262682;28;20021;-72
2022/08/11 00:54:37;;;;;;;4.65;1.20;;;;;;;;;;5263447;28;20028;-72
2022/08/11 00:57:21;;;;;;;3.85;1.50;;;;;;;;;;5263624;28;20021;-72
2022/08/11 01:00:09;;;;;;;3.13;1.00;;;;;;;;;;5262870;28;20499;-69
2022/08/11 01:02:44;;;;;;;2.70;1.10;;;;;;;;;;5263461;28;20025;-69
2022/08/11 01:05:18;;;;;;;6.00;1.85;;;;;;;;;;5262575;28;20124;-70
2022/08/11 01:08:07;;;;;;;3.08;1.10;;;;;;;;;;5263351;28;20024;-69
2022/08/11 01:10:53;;;;;;;4.88;1.40;;;;;;;;;;5262984;28;20029;-70
2022/08/11 01:13:45;;;;;;;3.47;1.20;;;;;;;;;;5262331;28;20032;-70
2022/08/11 01:16:35;;;;;;;4.65;1.40;;;;;;;;;;5263164;28;20037;-70
2022/08/11 01:19:09;;;;;;;2.08;1.08;;;;;;;;;;5263146;28;20027;-70
2022/08/11 01:21:59;;;;;;;5.28;1.15;;;;;;;;;;5262139;28;20052;-69
2022/08/11 01:24:36;;;;;;;5.80;1.55;;;;;;;;;;5262996;28;20028;-70
2022/08/11 01:27:31;;;;;;;5.28;1.38;;;;;;;;;;5262103;28;20028;-70
2022/08/11 01:30:21;;;;;;;2.53;1.20;;;;;;;;;;5262782;28;20021;-70
2022/08/11 01:33:04;;;;;;;5.63;1.95;;;;;;;;;;5262340;28;20380;-69
2022/08/11 01:35:54;;;;;;;5.93;1.42;;;;;;;;;;5261995;28;20380;-70
2022/08/11 01:38:44;;;;;;;7.00;1.48;;;;;;;;;;5262727;28;20029;-71
2022/08/11 01:41:24;;;;;;;5.30;1.42;;;;;;;;;;5262023;28;20115;-71
2022/08/11 01:47:05;;;;;;;3.75;1.40;;;;;;;;;;5262852;28;20021;-71
2022/08/11 01:49:50;;;;;;;4.53;1.60;;;;;;;;;;5261636;28;20021;-71
2022/08/11 01:52:27;;;;;;;3.90;1.15;;;;;;;;;;5262379;28;20028;-71
2022/08/11 01:55:22;;;;;;;3.70;1.10;;;;;;;;;;5261466;28;20060;-71
2022/08/11 01:58:07;;;;;;;5.72;1.52;;;;;;;;;;5262435;28;20082;-70
2022/08/11 02:00:47;;;;;;;7.05;1.40;;;;;;;;;;5262481;28;20527;-71
2022/08/11 02:03:28;;;;;;;4.32;1.70;;;;;;;;;;5261383;28;20143;-70
2022/08/11 02:06:53;;;;;;;3.40;2.00;;;;;;;;;;5261935;28;20028;-70
2022/08/11 02:08:59;;;;;;;5.50;1.27;;;;;;;;;;5260895;28;20052;-71
2022/08/11 02:11:32;;;;;;;3.78;1.55;;;;;;;;;;5261943;28;20064;-71
2022/08/11 02:14:06;;;;;;;7.07;1.63;;;;;;;;;;5262060;28;20021;-71
2022/08/11 02:16:56;;;;;;;6.30;1.92;;;;;;;;;;5261323;28;20033;-71
2022/08/11 02:25:59;;;;;;;2.50;1.75;;;;;;;;;;5261337;28;20024;-71
2022/08/11 02:28:39;;;;;;;5.00;1.80;;;;;;;;;;5262026;28;20032;-70
2022/08/11 02:34:38;;;;;;;6.90;1.73;;;;;;;;;;5262069;28;20029;-71
2022/08/11 02:37:14;;;;;;;3.60;2.17;;;;;;;;;;5261201;28;20029;-71
2022/08/11 02:39:54;;;;;;;5.82;1.92;;;;;;;;;;5261953;28;20033;-71
2022/08/11 02:42:34;;;;;;;5.30;1.75;;;;;;;;;;5261520;28;20079;-70
2022/08/11 02:45:11;;;;;;;5.03;1.98;;;;;;;;;;5260860;28;20021;-71
2022/08/11 02:50:50;;;;;;;4.00;2.58;;;;;;;;;;5261281;28;20032;-72
2022/08/11 02:53:28;;;;;;;6.97;2.00;;;;;;;;;;5261474;28;20021;-71
2022/08/11 02:56:07;;;;;;;9.50;1.70;;;;;;;;;;5261785;28;20476;-71
2022/08/11 02:59:48;;;;;;;9.98;2.50;;;;;;;;;;5260904;28;20017;-71
2022/08/11 03:01:41;;;;;;;8.80;2.45;;;;;;;;;;5261320;28;20033;-71
2022/08/11 03:04:34;;;;;;;5.72;2.50;;;;;;;;;;5261644;28;20029;-71
2022/08/11 03:07:13;;;;;;;8.18;2.58;;;;;;;;;;5261603;28;20020;-71
2022/08/11 03:09:44;;;;;;;;;;;;;;;;;;5266393;28;20368;-73
2022/08/11 03:18:21;;;;;;;3.35;2.00;;;;;;;;;;5265692;28;20033;-71
2022/08/11 03:21:01;;;;;;;5.72;2.10;;;;;;;;;;5264486;28;20048;-71
2022/08/11 03:23:36;;;;;;;5.57;2.13;;;;;;;;;;5265330;28;20024;-71
2022/08/11 03:26:37;;;;;;;7.63;2.05;;;;;;;;;;5264480;28;20045;-71
2022/08/11 03:29:19;;;;;;;4.47;2.05;;;;;;;;;;5248016;28;20037;-71
2022/08/11 03:31:55;;;;;;;5.65;1.58;;;;;;;;;;5265278;28;20399;-70
2022/08/11 03:34:28;;;;;;;8.90;2.13;;;;;;;;;;5264382;28;20025;-71
2022/08/11 03:37:12;;;;;;;7.80;2.33;;;;;;;;;;5264965;28;20016;-71
2022/08/11 03:39:58;;;;;;;6.00;1.70;;;;;;;;;;5265111;28;20399;-71
2022/08/11 03:42:38;;;;;;;5.00;2.25;;;;;;;;;;5264798;28;20049;-71
2022/08/11 03:45:29;;;;;;;8.38;1.88;;;;;;;;;;5264779;28;20111;-70
2022/08/11 03:48:07;;;;;;;5.03;1.90;;;;;;;;;;5263441;28;20119;-71
2022/08/11 03:50:54;;;;;;;7.45;1.92;;;;;;;;;;5264711;28;20025;-71
2022/08/11 03:53:38;;;;;;;6.43;2.10;;;;;;;;;;5264768;28;20013;-71
2022/08/11 03:56:27;;;;;;;6.32;2.40;;;;;;;;;;5263676;28;20021;-71
2022/08/11 03:59:10;;;;;;;6.15;2.30;;;;;;;;;;5264745;28;20434;-71
2022/08/11 04:01:41;;;;;;;4.70;1.98;;;;;;;;;;5263711;28;20024;-71
2022/08/11 04:04:31;;;;;;;4.93;2.15;;;;;;;;;;5264384;28;20071;-71
2022/08/11 04:07:16;;;;;;;6.00;2.63;;;;;;;;;;5264378;28;20318;-70
2022/08/11 04:10:06;;;;;;;5.78;2.35;;;;;;;;;;5263568;28;20401;-71
2022/08/11 04:12:55;;;;;;;3.72;2.30;;;;;;;;;;5263969;28;20032;-71
2022/08/11 04:18:38;;;;;;;8.20;2.33;;;;;;;;;;5263976;28;20025;-71
2022/08/11 04:21:19;;;;;;;8.57;2.40;;;;;;;;;;5264258;28;20025;-71
2022/08/11 04:24:11;;;;;;;8.80;3.38;;;;;;;;;;5263379;28;20025;-71
2022/08/11 04:26:48;;;;;;;4.97;2.28;;;;;;;;;;5264155;28;20013;-71
2022/08/11 04:29:38;;;;;;;4.45;2.70;;;;;;;;;;5263180;28;20021;-71
2022/08/11 04:32:27;;;;;;;8.18;2.92;;;;;;;;;;5264139;28;20032;-71
2022/08/11 04:34:58;;;;;;;8.80;3.00;;;;;;;;;;5263911;28;20052;-71
2022/08/11 04:37:33;;;;;;;6.90;2.83;;;;;;;;;;5263035;28;20021;-71
2022/08/11 04:40:19;;;;;;;3.92;3.17;;;;;;;;;;5263650;28;20032;-71
2022/08/11 04:43:21;;;;;;;6.95;2.78;;;;;;;;;;5263483;28;20073;-71
2022/08/11 04:46:05;;;;;;;5.63;2.83;;;;;;;;;;5263455;28;20022;-71
2022/08/11 05:03:41;;;;;;;7.93;3.20;;;;;;;;;;5263496;28;20025;-71
2022/08/11 05:06:15;;;;;;;4.80;3.70;;;;;;;;;;5262394;28;20468;-71
2022/08/11 05:09:04;;;;;;;7.90;3.65;;;;;;;;;;5263173;28;20059;-71
2022/08/11 05:11:54;;;;;;;13.05;4.18;;;;;;;;;;5262400;28;20021;-71
2022/08/11 05:35:40;;;;;;;10.77;4.87;;;;;;;;;;5263008;28;20079;-71
2022/08/11 05:58:09;;;;;;;11.10;4.28;;;;;;;;;;5262178;28;20037;-71
2022/08/11 06:00:45;;;;;;;10.02;4.90;;;;;;;;;;5261283;28;20029;-71
2022/08/11 06:03:24;;;;;;;12.40;4.45;;;;;;;;;;5262121;28;20071;-71
2022/08/11 06:05:56;;;;;;;8.43;4.82;;;;;;;;;;5262056;28;20017;-71
2022/08/11 06:08:34;;;;;;;7.40;4.57;;;;;;;;;;5261348;28;20017;-71
2022/08/11 06:11:06;;;;;;;10.98;4.47;;;;;;;;;;5262314;28;20087;-71
2022/08/11 06:13:43;;;;;;;15.27;4.70;;;;;;;;;;5262143;28;20009;-71
2022/08/11 06:16:20;;;;;;;7.68;4.38;;;;;;;;;;5261338;28;20472;-71
2022/08/11 06:18:51;;;;;;;6.57;4.60;;;;;;;;;;5261908;28;20025;-71
2022/08/11 06:21:23;;;;;;;9.18;4.30;;;;;;;;;;5261762;28;20451;-71
2022/08/11 06:23:54;;;;;;;8.63;3.63;;;;;;;;;;5261223;28;20013;-71
2022/08/11 06:26:26;;;;;;;8.13;4.05;;;;;;;;;;5262130;28;20025;-71
2022/08/11 06:28:58;;;;;;;10.70;4.20;;;;;;;;;;5261084;28;20013;-71
2022/08/11 06:31:31;;;;;;;7.70;4.55;;;;;;;;;;5262035;28;20013;-72
2022/08/11 06:34:11;;;;;;;17.85;3.80;;;;;;;;;;5261716;28;20013;-71
2022/08/11 06:36:59;;;;;;;5.97;3.63;;;;;;;;;;5261015;28;20471;-71
2022/08/11 06:39:43;;;;;;;9.32;3.67;;;;;;;;;;5262020;28;20029;-72
2022/08/11 06:42:31;;;;;;;14.35;4.47;;;;;;;;;;5262582;28;20045;-71
2022/08/11 06:45:14;;;;;;;8.52;3.65;;;;;;;;;;5265103;28;20053;-71
2022/08/11 06:47:46;;;;;;;9.23;3.67;;;;;;;;;;5265808;28;20052;-72
2022/08/11 06:53:09;;;;;;;9.40;3.20;;;;;;;;;;5266165;28;20033;-71
2022/08/11 07:01:35;;;;;;;6.47;3.10;;;;;;;;;;5266121;28;20021;-71
2022/08/11 07:04:07;;;;;;;15.70;3.28;;;;;;;;;;5265138;28;20013;-72
2022/08/11 07:15:47;;;;;;;9.05;2.88;;;;;;;;;;5265677;28;20041;-71
2022/08/11 07:30:08;;;;;;;5.70;2.63;;;;;;;;;;5265424;28;20021;-71
2022/08/11 07:33:05;;;;;;;4.97;2.40;;;;;;;;;;5264074;28;20082;-71
2022/08/11 07:35:46;;;;;;;7.50;2.03;;;;;;;;;;5260816;28;20055;-72
2022/08/11 07:38:19;;;;;;;6.93;2.15;;;;;;;;;;5265085;28;20088;-72
2022/08/11 07:40:51;;;;;;;4.85;2.03;;;;;;;;;;5263930;28;20033;-71
2022/08/11 07:43:22;;;;;;;6.13;2.20;;;;;;;;;;5264646;28;20376;-69
2022/08/11 07:54:24;;;;;;;7.63;1.63;;;;;;;;;;5263391;28;20024;-70
2022/08/11 07:56:56;;;;;;;5.95;1.52;;;;;;;;;;5264466;28;20017;-70
2022/08/11 08:19:20;;;;;;;4.25;1.30;;;;;;;;;;5264408;28;20045;-70
2022/08/11 08:21:51;;;;;;;7.25;1.30;;;;;;;;;;5263294;28;20028;-69
2022/08/11 08:24:22;;;;;;;7.30;1.42;;;;;;;;;;5263903;28;20086;-70
2022/08/11 08:27:00;;;;;;;6.80;1.35;;;;;;;;;;5263987;28;20476;-70
2022/08/11 08:32:26;;;;;;;7.03;1.23;;;;;;;;;;5264392;28;20033;-70
2022/08/11 08:34:58;;;;;;;5.03;1.13;;;;;;;;;;5263885;28;20028;-70
2022/08/11 08:37:29;;;;;;;9.82;1.20;;;;;;;;;;5262850;28;20020;-70
2022/08/11 08:40:01;;;;;;;5.93;1.40;;;;;;;;;;5263911;28;20054;-70
2022/08/11 08:42:37;;;;;;;6.40;1.10;;;;;;;;;;5262652;28;20036;-70
2022/08/11 08:45:09;;;;;;;6.80;1.08;;;;;;;;;;5263852;28;20376;-70
2022/08/11 08:47:44;;;;;;;6.68;1.30;;;;;;;;;;5263455;28;20077;-71
2022/08/11 08:50:18;;;;;;;3.83;1.00;;;;;;;;;;5262893;28;20020;-70
2022/08/11 08:52:54;;;;;;;6.43;1.13;;;;;;;;;;5263528;28;20428;-71
2022/08/11 08:55:27;;;;;;;9.13;1.15;;;;;;;;;;5263297;28;20032;-70
2022/08/11 08:57:59;;;;;;;7.03;0.90;;;;;;;;;;5262528;28;20468;-70
2022/08/11 09:00:39;;;;;;;5.75;1.00;;;;;;;;;;5263351;28;20159;-70
2022/08/11 09:03:11;;;;;;;3.95;1.35;;;;;;;;;;5263381;28;20083;-70
2022/08/11 09:05:43;;;;;;;4.32;0.95;;;;;;;;;;5261220;28;20025;-70
2022/08/11 09:08:16;;;;;;;7.85;2.03;;;;;;;;;;5261447;28;20028;-70
2022/08/11 09:11:49;;;;;;;8.13;1.20;;;;;;;;;;5262435;28;20380;-70
2022/08/11 09:13:43;;;;;;;8.20;0.90;;;;;;;;;;5262949;28;20176;-70
2022/08/11 09:16:15;;;;;;;3.70;0.90;;;;;;;;;;5263113;28;20116;-70
2022/08/11 09:18:46;;;;;;;5.07;1.58;;;;;;;;;;5262066;28;20104;-71
2022/08/11 09:21:21;;;;;;;3.20;1.00;;;;;;;;;;5263069;28;20464;-70
2022/08/11 09:26:58;;;;;;;5.72;1.20;;;;;;;;;;5262395;28;20037;-70
2022/08/11 09:29:30;;;;;;;10.15;1.15;;;;;;;;;;5262757;28;20024;-70
2022/08/11 09:32:01;;;;;;;10.10;1.23;;;;;;;;;;5262165;28;20055;-70
2022/08/11 09:34:35;;;;;;;8.43;0.97;;;;;;;;;;5262840;28;20029;-70
2022/08/11 09:45:38;;;;;;;3.97;0.70;;;;;;;;;;5262832;28;20029;-70
2022/08/11 09:48:10;;;;;;;11.23;0.80;;;;;;;;;;5261601;28;20096;-70
2022/08/11 09:50:41;;;;;;;3.45;0.60;;;;;;;;;;5262446;28;20104;-70
2022/08/11 09:53:14;;;;;;;6.20;0.83;;;;;;;;;;5261774;28;20388;-71
2022/08/11 09:55:46;;;;;;;6.00;0.90;;;;;;;;;;5262408;28;20335;-71
2022/08/11 09:58:18;;;;;;;2.55;0.70;;;;;;;;;;5262449;28;20490;-70
2022/08/11 10:00:50;;;;;;;9.52;1.25;;;;;;;;;;5261518;28;20032;-70
2022/08/11 10:03:22;;;;;;;6.00;0.70;;;;;;;;;;5262412;28;20017;-70
2022/08/11 10:08:53;;;;;;;6.72;0.80;;;;;;;;;;5259171;28;20029;-70
2022/08/11 10:11:25;;;;;;;7.50;0.85;;;;;;;;;;5262364;28;20365;-70
2022/08/11 10:16:47;;;;;;;4.72;0.73;;;;;;;;;;5261078;28;20033;-71
2022/08/11 10:19:20;;;;;;;4.63;0.73;;;;;;;;;;5261352;28;20021;-76
2022/08/11 10:27:33;;;;;;;6.43;0.90;;;;;;;;;;5261879;28;20124;-72
2022/08/11 10:35:48;;;;;;;2.55;0.70;;;;;;;;;;5260984;28;20040;-75
2022/08/11 10:38:19;;;;;;;7.37;0.90;;;;;;;;;;5310687;23;20391;-75
2022/08/11 10:43:01;;;;;;;5.75;0.80;;;;;;;;;;5282556;28;20291;-73
2022/08/11 10:43:42;;;;;;;6.40;1.00;;;;;;;;;;5282453;28;20082;-72
2022/08/11 10:49:05;;;;;;;4.60;0.73;;;;;;;;;;5276195;28;20189;-72
2022/08/11 11:00:08;;;;;;;4.55;0.80;;;;;;;;;;5281368;28;20025;-72
2022/08/11 11:02:43;;;;;;;6.30;0.75;;;;;;;;;;5282024;28;20020;-73
2022/08/11 11:05:23;;;;;;;3.78;0.80;;;;;;;;;;5281260;28;20024;-73
2022/08/11 11:08:02;;;;;;;3.53;0.50;;;;;;;;;;5282015;28;20024;-73
2022/08/11 11:10:33;;;;;;;;;;;;;;;;;;5282148;28;20024;-73
2022/08/11 11:18:55;;;;;;;4.85;0.50;;;;;;;;;;5226700;28;20037;-72
2022/08/11 11:21:27;;;;;;;3.58;0.60;;;;;;;;;;5282042;28;20066;-72
2022/08/11 11:24:10;;;;;;;3.30;0.50;;;;;;;;;;5281708;28;20029;-72
2022/08/11 11:27:07;;;;;;;8.00;0.90;;;;;;;;;;5281346;28;20020;-72
2022/08/11 11:29:56;;;;;;;8.35;0.80;;;;;;;;;;5285388;28;20024;-72
2022/08/11 11:32:33;;;;;;;5.28;0.45;;;;;;;;;;5275870;28;20017;-71
2022/08/11 11:35:17;;;;;;;3.17;0.65;;;;;;;;;;5262962;28;20038;-71
2022/08/11 11:37:49;;;;;;;5.35;0.60;;;;;;;;;;5283771;28;20540;-71
2022/08/11 11:40:21;;;;;;;3.72;0.60;;;;;;;;;;5284701;28;20536;-71
2022/08/11 11:42:53;;;;;;;4.72;0.50;;;;;;;;;;5285692;28;20017;-71
2022/08/11 11:45:25;;;;;;;8.15;0.50;;;;;;;;;;5284848;28;20409;-71
2022/08/11 11:47:58;;;;;;;5.97;0.60;;;;;;;;;;5284836;28;20029;-71
2022/08/11 11:50:33;;;;;;;6.22;0.68;;;;;;;;;;5285483;28;20378;-71
2022/08/11 11:53:11;;;;;;;5.95;0.52;;;;;;;;;;5285385;28;20070;-71
2022/08/11 11:55:42;;;;;;;4.22;0.65;;;;;;;;;;5284228;28;20032;-71
2022/08/11 12:01:15;;;;;;;5.15;0.82;;;;;;;;;;5285030;28;20020;-71
2022/08/11 12:03:49;;;;;;;2.40;0.60;;;;;;;;;;5285364;28;20063;-71
2022/08/11 12:06:21;;;;;;;7.40;0.70;;;;;;;;;;5285162;28;20017;-71
2022/08/11 12:08:54;;;;;;;3.90;0.80;;;;;;;;;;5284366;28;20040;-71
2022/08/11 12:14:18;;;;;;;4.72;0.70;;;;;;;;;;5285410;28;20063;-71
2022/08/11 12:16:50;;;;;;;4.70;0.70;;;;;;;;;;5284073;28;20059;-71
2022/08/11 12:19:22;;;;;;;6.88;0.60;;;;;;;;;;5285198;28;20331;-71
2022/08/11 12:27:34;;;;;;;6.82;0.60;;;;;;;;;;5285280;28;20025;-71
2022/08/11 12:30:07;;;;;;;4.88;0.60;;;;;;;;;;5284252;28;20020;-71
2022/08/11 12:32:38;;;;;;;4.75;0.70;;;;;;;;;;5284755;28;20411;-71
2022/08/11 12:35:13;;;;;;;3.45;0.50;;;;;;;;;;5284694;28;20021;-70
2022/08/11 12:37:46;;;;;;;2.67;0.70;;;;;;;;;;5283535;28;20045;-71
2022/08/11 12:46:11;;;;;;;3.35;0.60;;;;;;;;;;5284344;28;20056;-71
2022/08/11 12:51:57;;;;;;;7.05;0.70;;;;;;;;;;5283889;28;20020;-71
2022/08/11 12:54:31;;;;;;;2.78;0.60;;;;;;;;;;5284209;28;20021;-71
2022/08/11 13:05:36;;;;;;;4.53;0.63;;;;;;;;;;5283624;28;20036;-70
2022/08/11 13:08:07;;;;;;;3.80;0.70;;;;;;;;;;5284052;28;20020;-71
2022/08/11 13:13:28;;;;;;;4.57;0.70;;;;;;;;;;5283347;28;20024;-71
2022/08/11 13:15:59;;;;;;;4.68;0.60;;;;;;;;;;5283564;28;20029;-71
2022/08/11 13:18:32;;;;;;;3.77;0.60;;;;;;;;;;5283071;28;20021;-71
2022/08/11 13:21:03;;;;;;;1.75;0.50;;;;;;;;;;5283674;28;20320;-71
2022/08/11 13:23:35;;;;;;;3.47;0.77;;;;;;;;;;5259296;28;20142;-70
2022/08/11 13:26:07;;;;;;;3.10;0.60;;;;;;;;;;5275360;28;20446;-71
2022/08/11 13:28:39;;;;;;;1.95;0.43;;;;;;;;;;5282476;28;20096;-71
2022/08/11 13:31:10;;;;;;;4.60;1.08;;;;;;;;;;5282239;28;20112;-70
2022/08/11 13:33:46;;;;;;;4.97;0.53;;;;;;;;;;5281847;28;20379;-70
2022/08/11 13:36:22;;;;;;;2.35;0.40;;;;;;;;;;5282772;28;20645;-71
2022/08/11 13:38:54;;;;;;;3.60;0.50;;;;;;;;;;5282246;28;20075;-70
2022/08/11 13:41:38;;;;;;;4.32;0.50;;;;;;;;;;5281627;28;20046;-70
2022/08/11 13:44:12;;;;;;;3.30;0.50;;;;;;;;;;5280711;28;20019;-70
2022/08/11 13:46:43;;;;;;;3.50;0.50;;;;;;;;;;5281400;28;20016;-70
2022/08/11 13:49:15;;;;;;;4.65;0.50;;;;;;;;;;5282690;28;20028;-70
2022/08/11 13:51:46;;;;;;;3.13;0.55;;;;;;;;;;5281323;28;20101;-69
2022/08/11 13:54:24;;;;;;;3.65;0.60;;;;;;;;;;5281585;28;20435;-70
2022/08/11 13:56:58;;;;;;;5.72;0.50;;;;;;;;;;5282132;28;20115;-70
2022/08/11 13:59:29;;;;;;;4.68;0.50;;;;;;;;;;5281814;28;20078;-70
2022/08/11 14:02:03;;;;;;;3.22;0.60;;;;;;;;;;5281231;28;20467;-70
2022/08/11 14:04:38;;;;;;;6.63;0.77;;;;;;;;;;5281726;28;20032;-69
2022/08/11 14:07:10;;;;;;;1.95;0.80;;;;;;;;;;5281945;28;20367;-70
2022/08/11 14:09:43;;;;;;;9.00;0.65;;;;;;;;;;5281362;28;20127;-70
2022/08/11 14:15:15;;;;;;;2.58;0.60;;;;;;;;;;5280984;28;20044;-71
2022/08/11 14:17:49;;;;;;;4.95;1.10;;;;;;;;;;5281790;28;20483;-70
2022/08/11 14:20:21;;;;;;;5.55;0.57;;;;;;;;;;5281975;28;20455;-69
2022/08/11 14:22:52;;;;;;;5.07;0.60;;;;;;;;;;5281060;28;20020;-69
2022/08/11 14:25:24;;;;;;;5.17;0.57;;;;;;;;;;5281737;28;20023;-70
2022/08/11 14:27:56;;;;;;;3.63;0.80;;;;;;;;;;5281731;28;20158;-69
2022/08/11 14:33:17;;;;;;;3.90;0.63;;;;;;;;;;5281694;28;20032;-70
2022/08/11 14:35:48;;;;;;;4.60;0.60;;;;;;;;;;5281401;28;20028;-70
2022/08/11 14:38:19;;;;;;;6.13;0.57;;;;;;;;;;5280732;28;20447;-71
2022/08/11 14:49:22;;;;;;;7.10;0.60;;;;;;;;;;5281326;28;20021;-71
2022/08/11 14:51:54;;;;;;;5.78;0.60;;;;;;;;;;5280877;28;20032;-71
2022/08/11 14:57:18;;;;;;;4.40;0.60;;;;;;;;;;5280864;28;20068;-70
2022/08/11 14:59:50;;;;;;;5.18;0.70;;;;;;;;;;5281193;28;20016;-71
2022/08/11 15:05:12;;;;;;;4.72;0.70;;;;;;;;;;5284695;28;20024;-70
2022/08/11 15:07:44;;;;;;;5.43;0.63;;;;;;;;;;5285136;28;20028;-71
2022/08/11 15:10:17;;;;;;;3.35;0.65;;;;;;;;;;5285549;28;20451;-72
2022/08/11 15:12:48;;;;;;;5.47;0.90;;;;;;;;;;5284611;28;20024;-71
2022/08/11 15:18:18;;;;;;;5.90;0.93;;;;;;;;;;5284596;28;20033;-70
2022/08/11 15:37:51;;;;;;;3.38;0.68;;;;;;;;;;5285498;28;20060;-70
2022/08/11 15:46:27;;;;;;;5.07;0.80;;;;;;;;;;5285553;28;20119;-82
2022/08/11 15:49:13;;;;;;;5.32;0.60;;;;;;;;;;5285579;28;20489;-83
2022/08/11 15:51:50;;;;;;;3.17;0.60;;;;;;;;;;5285372;28;20143;-84
2022/08/11 15:57:04;;;;;;;6.40;0.50;;;;;;;;;;5327371;22;20502;-68
2022/08/11 16:05:16;;;;;;;4.32;0.50;;;;;;;;;;5285316;28;20472;-68
2022/08/11 16:07:49;;;;;;;4.82;0.50;;;;;;;;;;5285087;28;20016;-68
2022/08/11 16:10:20;;;;;;;3.80;0.50;;;;;;;;;;5284459;28;20497;-68
2022/08/11 16:18:39;;;;;;;2.85;0.60;;;;;;;;;;5280040;28;20044;-68
2022/08/11 16:21:12;;;;;;;4.65;0.60;;;;;;;;;;5284359;28;20482;-68
2022/08/11 16:23:45;;;;;;;3.63;0.50;;;;;;;;;;5271447;28;20028;-68
2022/08/11 16:26:18;;;;;;;5.68;0.50;;;;;;;;;;5273525;28;20024;-68
2022/08/11 16:28:50;;;;;;;3.95;0.50;;;;;;;;;;5264031;28;20017;-68
2022/08/11 16:31:22;;;;;;;2.13;0.50;;;;;;;;;;5262965;28;20336;-68
2022/08/11 16:33:54;;;;;;;3.95;0.50;;;;;;;;;;5263964;28;20013;-68
2022/08/11 16:39:17;;;;;;;2.83;0.60;;;;;;;;;;5262604;28;20232;-68
2022/08/11 16:47:48;;;;;;;4.93;0.80;;;;;;;;;;5179002;28;20038;-68
2022/08/11 16:50:20;;;;;;;2.95;0.52;;;;;;;;;;5179169;28;20019;-69
2022/08/11 16:52:51;;;;;;;7.70;0.50;;;;;;;;;;5225301;28;20040;-69
2022/08/11 16:55:22;;;;;;;2.67;0.77;;;;;;;;;;5262925;28;20037;-68
2022/08/11 17:00:44;;;;;;;5.72;0.50;;;;;;;;;;5262715;28;20025;-71
2022/08/11 17:14:47;;;;;;;3.15;0.50;;;;;;;;;;5261412;28;20033;-70
2022/08/11 17:17:32;;;;;;;5.68;0.52;;;;;;;;;;5261812;28;20460;-71
2022/08/11 17:20:07;;;;;;;5.75;0.40;;;;;;;;;;5261368;28;20052;-71
2022/08/11 17:25:33;;;;;;;3.28;0.60;;;;;;;;;;5262223;28;20103;-71
2022/08/11 17:28:05;;;;;;;4.38;0.52;;;;;;;;;;5262251;28;20033;-72
2022/08/11 17:36:19;;;;;;;4.50;0.60;;;;;;;;;;5261978;28;20041;-69
2022/08/11 17:38:51;;;;;;;6.63;0.55;;;;;;;;;;5261536;28;20013;-68
2022/08/11 17:49:53;;;;;;;4.88;0.60;;;;;;;;;;5270079;28;20025;-68
2022/08/11 18:00:59;;;;;;;2.95;0.50;;;;;;;;;;5253107;28;20028;-68
2022/08/11 18:03:31;;;;;;;4.28;0.75;;;;;;;;;;5280278;28;20016;-69
2022/08/11 18:06:03;;;;;;;4.85;0.82;;;;;;;;;;5272183;28;20100;-69
